Cheyenne, WY

6:56 PM MST on December 09, 2016 (GMT -0700)
Cheyenne | | Change Station

Elev 6142 ft 41.16 °N, 104.81 °W | Updated 3 minutes ago

Mostly Cloudy
Mostly Cloudy
29 °F
Feels Like 17 °F
N
16
Wind Variable Wind from South

Today
High -- | Low -- °F
--% Chance of Precip.
Yesterday
High -- | Low -- °F
Precip. -- in
Pressure 30.14 in
Visibility 9.0 miles
Clouds Few 6000 ft
Mostly Cloudy 9000 ft
Mostly Cloudy 12000 ft
Windchill 17 °F
Dew Point 23 °F
Humidity 78%
Rainfall 0.00 in
Snow Depth Not available.
7:13 AM 4:30 PM
Waxing Gibbous, 79% visible
METAR KCYS 100153Z 19014KT 9SM FEW060 BKN090 BKN120 M02/M05 A3008 RMK AO2 WSHFT 0057 SLP207 T10171050
Pressure 30.14 in
Visibility 9.0 miles
Clouds Few 6000 ft
Mostly Cloudy 9000 ft
Mostly Cloudy 12000 ft
Windchill 17 °F
Dew Point 23 °F
Humidity 78%
Rainfall 0.00 in
Snow Depth Not available.
7:13 AM 4:30 PM
Waxing Gibbous, 79% visible
METAR KCYS 100153Z 19014KT 9SM FEW060 BKN090 BKN120 M02/M05 A3008 RMK AO2 WSHFT 0057 SLP207 T10171050

10-Day Weather Forecast

Almanac

Astronomy

Dec. 09, 2016 Rise Set
Actual Time
Civil Twilight
Nautical Twilight
Astronomical Twilight
Moon
Length of Visible Light
Length of Day
Tomorrow will be .
, % of the Moon is Illuminated

Today's Extremes

State Highs State Lows

Community

WunderPhotos

Upload Photos

1,956,532 photos uploaded!

WunderBlog® & News

Nearby

Air Quality

  Air Quality AQ Index Pollutant
Not available.

Snow Depth

Station Depth Elevation

Earthquake Activity

City Distance Mag. Time & Date
Minimum magnitude displayed is 2.5.

Coastal Water Temperatures

Place Temperature

Stations

Nearby Weather Stations

Station Location Temp. Windchill Dew Point Humidity Wind Precip. Elev Updated Type
                   

Watches & Warnings

There are currently no watches in effect.